sensor_id;sensor_type;location;lat;lon;timestamp;temperature;humidity
42421;DHT22;28063;48.140;11.588;2022-09-09T00:04:09;16.40;93.60
42421;DHT22;28063;48.140;11.588;2022-09-09T00:07:05;16.40;93.80
42421;DHT22;28063;48.140;11.588;2022-09-09T00:12:49;16.30;94.00
42421;DHT22;28063;48.140;11.588;2022-09-09T00:15:20;16.30;94.10
42421;DHT22;28063;48.140;11.588;2022-09-09T00:21:06;16.20;94.50
42421;DHT22;28063;48.140;11.588;2022-09-09T00:23:37;16.20;94.80
42421;DHT22;28063;48.140;11.588;2022-09-09T00:31:43;16.20;95.20
42421;DHT22;28063;48.140;11.588;2022-09-09T00:34:14;16.20;95.30
42421;DHT22;28063;48.140;11.588;2022-09-09T00:36:41;16.30;95.30
42421;DHT22;28063;48.140;11.588;2022-09-09T00:39:24;16.30;95.30
42421;DHT22;28063;48.140;11.588;2022-09-09T00:44:39;16.30;95.30
42421;DHT22;28063;48.140;11.588;2022-09-09T00:50:22;16.20;95.60
42421;DHT22;28063;48.140;11.588;2022-09-09T00:55:59;16.20;96.00
42421;DHT22;28063;48.140;11.588;2022-09-09T00:58:26;16.20;96.20
42421;DHT22;28063;48.140;11.588;2022-09-09T01:09:27;16.00;97.00
42421;DHT22;28063;48.140;11.588;2022-09-09T01:12:07;16.00;97.30
42421;DHT22;28063;48.140;11.588;2022-09-09T01:17:22;16.10;97.40
42421;DHT22;28063;48.140;11.588;2022-09-09T01:28:31;16.30;96.90
42421;DHT22;28063;48.140;11.588;2022-09-09T01:31:01;16.30;96.70
42421;DHT22;28063;48.140;11.588;2022-09-09T01:33:27;16.40;96.50
42421;DHT22;28063;48.140;11.588;2022-09-09T01:38:26;16.30;96.30
42421;DHT22;28063;48.140;11.588;2022-09-09T01:40:53;16.30;96.20
42421;DHT22;28063;48.140;11.588;2022-09-09T01:43:23;16.30;96.20
42421;DHT22;28063;48.140;11.588;2022-09-09T01:45:54;16.20;96.20
42421;DHT22;28063;48.140;11.588;2022-09-09T01:48:22;16.20;96.30
42421;DHT22;28063;48.140;11.588;2022-09-09T01:50:48;16.10;96.50
42421;DHT22;28063;48.140;11.588;2022-09-09T01:53:15;16.10;96.60
42421;DHT22;28063;48.140;11.588;2022-09-09T01:55:48;16.20;96.80
42421;DHT22;28063;48.140;11.588;2022-09-09T02:04:43;16.00;97.10
42421;DHT22;28063;48.140;11.588;2022-09-09T02:07:39;16.00;97.20
42421;DHT22;28063;48.140;11.588;2022-09-09T02:10:21;15.90;97.40
42421;DHT22;28063;48.140;11.588;2022-09-09T02:12:57;15.90;97.50
42421;DHT22;28063;48.140;11.588;2022-09-09T02:18:49;15.90;97.70
42421;DHT22;28063;48.140;11.588;2022-09-09T02:21:17;15.80;97.90
42421;DHT22;28063;48.140;11.588;2022-09-09T02:23:44;15.80;98.10
42421;DHT22;28063;48.140;11.588;2022-09-09T02:26:13;15.80;98.20
42421;DHT22;28063;48.140;11.588;2022-09-09T02:28:49;15.80;98.30
42421;DHT22;28063;48.140;11.588;2022-09-09T02:31:18;15.80;98.40
42421;DHT22;28063;48.140;11.588;2022-09-09T02:33:49;15.80;98.50
42421;DHT22;28063;48.140;11.588;2022-09-09T02:36:18;15.80;98.50
42421;DHT22;28063;48.140;11.588;2022-09-09T02:38:47;15.90;98.50
42421;DHT22;28063;48.140;11.588;2022-09-09T02:41:26;15.90;98.50
42421;DHT22;28063;48.140;11.588;2022-09-09T02:43:53;15.90;98.40
42421;DHT22;28063;48.140;11.588;2022-09-09T02:50:00;15.90;98.40
42421;DHT22;28063;48.140;11.588;2022-09-09T02:55:34;15.90;98.60
42421;DHT22;28063;48.140;11.588;2022-09-09T02:58:05;16.00;98.90
42421;DHT22;28063;48.140;11.588;2022-09-09T03:00:33;15.90;98.90
42421;DHT22;28063;48.140;11.588;2022-09-09T03:03:02;15.90;99.00
42421;DHT22;28063;48.140;11.588;2022-09-09T03:05:28;15.80;99.40
42421;DHT22;28063;48.140;11.588;2022-09-09T03:07:54;15.80;99.30
42421;DHT22;28063;48.140;11.588;2022-09-09T03:10:20;15.80;99.50
42421;DHT22;28063;48.140;11.588;2022-09-09T03:12:46;15.80;99.70
42421;DHT22;28063;48.140;11.588;2022-09-09T03:15:12;15.70;99.80
42421;DHT22;28063;48.140;11.588;2022-09-09T03:17:38;15.70;99.90
42421;DHT22;28063;48.140;11.588;2022-09-09T03:20:04;15.70;99.90
42421;DHT22;28063;48.140;11.588;2022-09-09T03:22:30;15.60;99.90
42421;DHT22;28063;48.140;11.588;2022-09-09T03:24:56;15.60;99.90
42421;DHT22;28063;48.140;11.588;2022-09-09T03:27:22;15.60;99.90
42421;DHT22;28063;48.140;11.588;2022-09-09T03:29:48;15.50;99.90
42421;DHT22;28063;48.140;11.588;2022-09-09T03:32:17;15.50;99.90
42421;DHT22;28063;48.140;11.588;2022-09-09T03:34:51;15.40;99.90
42421;DHT22;28063;48.140;11.588;2022-09-09T03:37:20;15.40;99.90
42421;DHT22;28063;48.140;11.588;2022-09-09T03:39:45;15.40;99.90
42421;DHT22;28063;48.140;11.588;2022-09-09T03:42:15;15.30;99.90
42421;DHT22;28063;48.140;11.588;2022-09-09T03:44:44;15.30;99.90
42421;DHT22;28063;48.140;11.588;2022-09-09T03:47:19;15.30;99.90
42421;DHT22;28063;48.140;11.588;2022-09-09T03:49:47;15.30;99.90
42421;DHT22;28063;48.140;11.588;2022-09-09T03:52:15;15.30;99.90
42421;DHT22;28063;48.140;11.588;2022-09-09T03:54:42;15.40;99.90
42421;DHT22;28063;48.140;11.588;2022-09-09T03:57:09;15.50;99.90
42421;DHT22;28063;48.140;11.588;2022-09-09T03:59:36;15.50;99.90
42421;DHT22;28063;48.140;11.588;2022-09-09T04:02:04;15.60;99.90
42421;DHT22;28063;48.140;11.588;2022-09-09T04:04:32;15.60;99.90
42421;DHT22;28063;48.140;11.588;2022-09-09T04:06:58;15.70;99.90
42421;DHT22;28063;48.140;11.588;2022-09-09T04:09:24;15.80;99.90
42421;DHT22;28063;48.140;11.588;2022-09-09T04:11:50;15.80;99.90
42421;DHT22;28063;48.140;11.588;2022-09-09T04:14:15;15.90;99.90
42421;DHT22;28063;48.140;11.588;2022-09-09T04:16:41;15.90;99.90
42421;DHT22;28063;48.140;11.588;2022-09-09T04:19:10;15.90;99.90
42421;DHT22;28063;48.140;11.588;2022-09-09T04:21:40;15.80;99.90
42421;DHT22;28063;48.140;11.588;2022-09-09T04:24:09;15.80;99.90
42421;DHT22;28063;48.140;11.588;2022-09-09T04:26:35;15.70;99.90
42421;DHT22;28063;48.140;11.588;2022-09-09T04:29:04;15.70;99.90
42421;DHT22;28063;48.140;11.588;2022-09-09T04:31:30;15.60;99.90
42421;DHT22;28063;48.140;11.588;2022-09-09T04:33:56;15.60;99.90
42421;DHT22;28063;48.140;11.588;2022-09-09T04:36:22;15.60;99.90
42421;DHT22;28063;48.140;11.588;2022-09-09T04:38:50;15.60;99.90
42421;DHT22;28063;48.140;11.588;2022-09-09T04:41:19;15.50;99.90
42421;DHT22;28063;48.140;11.588;2022-09-09T04:43:45;15.40;99.90
42421;DHT22;28063;48.140;11.588;2022-09-09T04:46:13;15.30;99.90
42421;DHT22;28063;48.140;11.588;2022-09-09T04:48:39;15.30;99.90
42421;DHT22;28063;48.140;11.588;2022-09-09T04:51:06;15.30;99.90
42421;DHT22;28063;48.140;11.588;2022-09-09T04:53:32;15.30;99.90
42421;DHT22;28063;48.140;11.588;2022-09-09T04:56:03;15.20;99.90
42421;DHT22;28063;48.140;11.588;2022-09-09T04:58:30;15.20;99.90
42421;DHT22;28063;48.140;11.588;2022-09-09T05:01:03;15.20;99.90
42421;DHT22;28063;48.140;11.588;2022-09-09T05:03:29;15.20;99.90
42421;DHT22;28063;48.140;11.588;2022-09-09T05:06:01;15.20;99.90
42421;DHT22;28063;48.140;11.588;2022-09-09T05:08:28;15.20;99.90
42421;DHT22;28063;48.140;11.588;2022-09-09T05:10:54;15.30;99.90
42421;DHT22;28063;48.140;11.588;2022-09-09T05:13:20;15.30;99.90
42421;DHT22;28063;48.140;11.588;2022-09-09T05:15:52;15.30;99.90
42421;DHT22;28063;48.140;11.588;2022-09-09T05:18:52;15.30;99.90
42421;DHT22;28063;48.140;11.588;2022-09-09T05:21:40;15.30;99.90
42421;DHT22;28063;48.140;11.588;2022-09-09T05:24:25;15.30;99.90
42421;DHT22;28063;48.140;11.588;2022-09-09T05:27:12;15.30;99.90
42421;DHT22;28063;48.140;11.588;2022-09-09T05:33:02;15.30;99.90
42421;DHT22;28063;48.140;11.588;2022-09-09T05:35:28;15.30;99.90
42421;DHT22;28063;48.140;11.588;2022-09-09T05:37:59;15.40;99.90
42421;DHT22;28063;48.140;11.588;2022-09-09T05:40:25;15.40;99.90
42421;DHT22;28063;48.140;11.588;2022-09-09T05:42:50;15.40;99.90
42421;DHT22;28063;48.140;11.588;2022-09-09T05:45:16;15.60;99.90
42421;DHT22;28063;48.140;11.588;2022-09-09T05:47:42;15.60;99.90
42421;DHT22;28063;48.140;11.588;2022-09-09T05:50:07;15.60;99.90
42421;DHT22;28063;48.140;11.588;2022-09-09T05:52:33;15.70;99.90
42421;DHT22;28063;48.140;11.588;2022-09-09T05:54:59;15.70;99.90
42421;DHT22;28063;48.140;11.588;2022-09-09T05:57:25;15.80;99.90
42421;DHT22;28063;48.140;11.588;2022-09-09T05:59:50;15.80;99.90
42421;DHT22;28063;48.140;11.588;2022-09-09T06:02:16;15.90;99.90
42421;DHT22;28063;48.140;11.588;2022-09-09T06:04:41;15.90;99.90
42421;DHT22;28063;48.140;11.588;2022-09-09T06:07:07;15.90;99.90
42421;DHT22;28063;48.140;11.588;2022-09-09T06:09:33;16.00;99.90
42421;DHT22;28063;48.140;11.588;2022-09-09T06:11:58;16.10;99.90
42421;DHT22;28063;48.140;11.588;2022-09-09T06:14:24;16.20;99.90
42421;DHT22;28063;48.140;11.588;2022-09-09T06:19:53;16.30;99.90
42421;DHT22;28063;48.140;11.588;2022-09-09T06:22:19;16.40;99.80
42421;DHT22;28063;48.140;11.588;2022-09-09T06:24:44;16.40;99.60
42421;DHT22;28063;48.140;11.588;2022-09-09T06:27:10;16.50;99.20
42421;DHT22;28063;48.140;11.588;2022-09-09T06:29:46;16.50;99.00
42421;DHT22;28063;48.140;11.588;2022-09-09T06:32:32;16.50;98.80
42421;DHT22;28063;48.140;11.588;2022-09-09T06:35:00;16.30;98.70
42421;DHT22;28063;48.140;11.588;2022-09-09T06:37:26;16.40;99.20
42421;DHT22;28063;48.140;11.588;2022-09-09T06:39:52;16.30;98.90
42421;DHT22;28063;48.140;11.588;2022-09-09T06:42:20;16.30;98.70
42421;DHT22;28063;48.140;11.588;2022-09-09T06:44:45;16.30;98.80
42421;DHT22;28063;48.140;11.588;2022-09-09T06:47:11;16.30;98.80
42421;DHT22;28063;48.140;11.588;2022-09-09T06:49:37;16.40;98.90
42421;DHT22;28063;48.140;11.588;2022-09-09T06:52:02;16.40;98.80
42421;DHT22;28063;48.140;11.588;2022-09-09T06:54:28;16.50;98.60
42421;DHT22;28063;48.140;11.588;2022-09-09T06:56:54;16.70;98.40
42421;DHT22;28063;48.140;11.588;2022-09-09T06:59:19;16.80;98.10
42421;DHT22;28063;48.140;11.588;2022-09-09T07:01:45;17.00;97.60
42421;DHT22;28063;48.140;11.588;2022-09-09T07:04:12;17.10;97.30
42421;DHT22;28063;48.140;11.588;2022-09-09T07:06:40;17.20;96.90
42421;DHT22;28063;48.140;11.588;2022-09-09T07:09:10;17.40;96.60
42421;DHT22;28063;48.140;11.588;2022-09-09T07:11:44;17.40;96.40
42421;DHT22;28063;48.140;11.588;2022-09-09T07:14:11;17.40;96.20
42421;DHT22;28063;48.140;11.588;2022-09-09T07:16:41;17.50;95.90
42421;DHT22;28063;48.140;11.588;2022-09-09T07:19:07;17.50;95.90
42421;DHT22;28063;48.140;11.588;2022-09-09T07:21:33;17.50;95.80
42421;DHT22;28063;48.140;11.588;2022-09-09T07:23:59;17.60;95.70
42421;DHT22;28063;48.140;11.588;2022-09-09T07:26:28;17.60;95.60
42421;DHT22;28063;48.140;11.588;2022-09-09T07:28:55;17.50;95.80
42421;DHT22;28063;48.140;11.588;2022-09-09T07:31:26;17.40;96.40
42421;DHT22;28063;48.140;11.588;2022-09-09T07:33:53;17.30;96.90
42421;DHT22;28063;48.140;11.588;2022-09-09T07:36:21;17.10;97.20
42421;DHT22;28063;48.140;11.588;2022-09-09T07:38:56;17.10;97.70
42421;DHT22;28063;48.140;11.588;2022-09-09T07:41:34;17.10;98.10
42421;DHT22;28063;48.140;11.588;2022-09-09T07:44:08;17.20;97.90
42421;DHT22;28063;48.140;11.588;2022-09-09T07:46:34;17.30;97.90
42421;DHT22;28063;48.140;11.588;2022-09-09T07:49:01;17.50;97.70
42421;DHT22;28063;48.140;11.588;2022-09-09T07:51:30;17.80;97.00
42421;DHT22;28063;48.140;11.588;2022-09-09T07:54:03;18.10;96.40
42421;DHT22;28063;48.140;11.588;2022-09-09T07:56:30;18.30;95.50
42421;DHT22;28063;48.140;11.588;2022-09-09T07:58:57;18.30;94.90
42421;DHT22;28063;48.140;11.588;2022-09-09T08:01:30;18.40;94.70
42421;DHT22;28063;48.140;11.588;2022-09-09T08:03:59;18.40;94.60
42421;DHT22;28063;48.140;11.588;2022-09-09T08:06:26;18.40;94.50
42421;DHT22;28063;48.140;11.588;2022-09-09T08:08:54;18.30;94.50
42421;DHT22;28063;48.140;11.588;2022-09-09T08:11:22;18.40;94.40
42421;DHT22;28063;48.140;11.588;2022-09-09T08:13:49;18.40;94.40
42421;DHT22;28063;48.140;11.588;2022-09-09T08:16:17;18.60;94.30
42421;DHT22;28063;48.140;11.588;2022-09-09T08:18:43;18.70;93.90
42421;DHT22;28063;48.140;11.588;2022-09-09T08:21:15;18.70;93.60
42421;DHT22;28063;48.140;11.588;2022-09-09T08:23:44;18.70;93.20
42421;DHT22;28063;48.140;11.588;2022-09-09T08:26:20;18.80;93.00
42421;DHT22;28063;48.140;11.588;2022-09-09T08:28:51;18.80;92.60
42421;DHT22;28063;48.140;11.588;2022-09-09T08:33:50;18.90;92.60
42421;DHT22;28063;48.140;11.588;2022-09-09T08:36:21;19.00;92.70
42421;DHT22;28063;48.140;11.588;2022-09-09T08:38:51;19.20;92.60
42421;DHT22;28063;48.140;11.588;2022-09-09T08:50:32;19.30;90.80
42421;DHT22;28063;48.140;11.588;2022-09-09T08:53:20;19.10;91.50
42421;DHT22;28063;48.140;11.588;2022-09-09T08:55:55;18.90;91.90
42421;DHT22;28063;48.140;11.588;2022-09-09T08:58:29;18.80;92.40
42421;DHT22;28063;48.140;11.588;2022-09-09T09:01:24;18.80;92.50
42421;DHT22;28063;48.140;11.588;2022-09-09T09:04:02;18.80;92.60
42421;DHT22;28063;48.140;11.588;2022-09-09T09:12:15;18.70;93.50
42421;DHT22;28063;48.140;11.588;2022-09-09T09:14:45;18.90;93.70
42421;DHT22;28063;48.140;11.588;2022-09-09T09:17:12;19.00;93.80
42421;DHT22;28063;48.140;11.588;2022-09-09T09:19:41;19.00;93.70
42421;DHT22;28063;48.140;11.588;2022-09-09T09:22:20;19.10;93.90
42421;DHT22;28063;48.140;11.588;2022-09-09T09:28:29;19.40;93.40
42421;DHT22;28063;48.140;11.588;2022-09-09T09:31:05;19.60;92.70
42421;DHT22;28063;48.140;11.588;2022-09-09T09:33:48;19.90;92.10
42421;DHT22;28063;48.140;11.588;2022-09-09T09:36:16;20.30;90.70
42421;DHT22;28063;48.140;11.588;2022-09-09T09:39:21;20.60;85.20
42421;DHT22;28063;48.140;11.588;2022-09-09T09:41:47;20.70;82.90
42421;DHT22;28063;48.140;11.588;2022-09-09T09:44:50;20.70;81.90
42421;DHT22;28063;48.140;11.588;2022-09-09T09:47:21;20.50;81.00
42421;DHT22;28063;48.140;11.588;2022-09-09T09:49:59;20.40;82.20
42421;DHT22;28063;48.140;11.588;2022-09-09T09:52:30;20.20;83.40
42421;DHT22;28063;48.140;11.588;2022-09-09T09:54:58;20.20;84.40
42421;DHT22;28063;48.140;11.588;2022-09-09T09:57:33;20.20;85.20
42421;DHT22;28063;48.140;11.588;2022-09-09T10:02:39;20.00;86.50
42421;DHT22;28063;48.140;11.588;2022-09-09T10:05:28;19.90;87.90
42421;DHT22;28063;48.140;11.588;2022-09-09T10:08:02;19.80;89.10
42421;DHT22;28063;48.140;11.588;2022-09-09T10:10:55;19.80;89.60
42421;DHT22;28063;48.140;11.588;2022-09-09T10:19:33;19.50;90.50
42421;DHT22;28063;48.140;11.588;2022-09-09T10:28:08;19.50;90.30
42421;DHT22;28063;48.140;11.588;2022-09-09T10:33:32;19.20;90.70
42421;DHT22;28063;48.140;11.588;2022-09-09T10:36:12;19.00;90.90
42421;DHT22;28063;48.140;11.588;2022-09-09T10:44:14;19.40;91.20
42421;DHT22;28063;48.140;11.588;2022-09-09T10:57:36;20.20;88.70
42421;DHT22;28063;48.140;11.588;2022-09-09T12:20:50;21.40;74.50
42421;DHT22;28063;48.140;11.588;2022-09-09T12:41:25;22.40;69.30
42421;DHT22;28063;48.140;11.588;2022-09-09T12:48:10;22.50;69.00
42421;DHT22;28063;48.140;11.588;2022-09-09T12:51:47;22.70;68.90
42421;DHT22;28063;48.140;11.588;2022-09-09T13:05:06;23.50;65.40
42421;DHT22;28063;48.140;11.588;2022-09-09T13:15:33;22.30;69.70
42421;DHT22;28063;48.140;11.588;2022-09-09T13:18:46;22.30;70.90
42421;DHT22;28063;48.140;11.588;2022-09-09T13:52:51;22.00;70.60
42421;DHT22;28063;48.140;11.588;2022-09-09T13:55:37;21.70;71.60
42421;DHT22;28063;48.140;11.588;2022-09-09T13:58:27;21.60;71.20
42421;DHT22;28063;48.140;11.588;2022-09-09T14:05:04;21.40;72.80
42421;DHT22;28063;48.140;11.588;2022-09-09T14:11:40;20.80;73.70
42421;DHT22;28063;48.140;11.588;2022-09-09T14:14:29;20.70;74.90
42421;DHT22;28063;48.140;11.588;2022-09-09T14:17:23;20.70;75.30
42421;DHT22;28063;48.140;11.588;2022-09-09T14:23:25;20.40;76.70
42421;DHT22;28063;48.140;11.588;2022-09-09T14:32:58;20.60;76.70
42421;DHT22;28063;48.140;11.588;2022-09-09T14:39:50;20.60;76.40
42421;DHT22;28063;48.140;11.588;2022-09-09T14:49:37;20.20;78.20
42421;DHT22;28063;48.140;11.588;2022-09-09T15:07:02;19.80;79.40
42421;DHT22;28063;48.140;11.588;2022-09-09T15:13:25;19.80;78.90
42421;DHT22;28063;48.140;11.588;2022-09-09T15:26:36;19.80;78.40
42421;DHT22;28063;48.140;11.588;2022-09-09T15:30:20;19.80;78.20
42421;DHT22;28063;48.140;11.588;2022-09-09T15:39:57;19.70;77.10
42421;DHT22;28063;48.140;11.588;2022-09-09T15:45:42;19.70;77.30
42421;DHT22;28063;48.140;11.588;2022-09-09T15:48:08;19.60;76.90
42421;DHT22;28063;48.140;11.588;2022-09-09T15:50:33;19.60;77.10
42421;DHT22;28063;48.140;11.588;2022-09-09T15:53:08;19.70;76.80
42421;DHT22;28063;48.140;11.588;2022-09-09T15:55:36;19.80;76.10
42421;DHT22;28063;48.140;11.588;2022-09-09T15:58:04;20.20;75.30
42421;DHT22;28063;48.140;11.588;2022-09-09T16:01:01;20.50;74.40
42421;DHT22;28063;48.140;11.588;2022-09-09T16:03:48;20.60;73.90
42421;DHT22;28063;48.140;11.588;2022-09-09T16:06:24;20.60;73.70
42421;DHT22;28063;48.140;11.588;2022-09-09T16:09:19;20.40;73.00
42421;DHT22;28063;48.140;11.588;2022-09-09T16:11:50;20.10;74.30
42421;DHT22;28063;48.140;11.588;2022-09-09T16:14:22;19.80;75.30
42421;DHT22;28063;48.140;11.588;2022-09-09T16:17:26;19.60;76.60
42421;DHT22;28063;48.140;11.588;2022-09-09T16:20:19;19.30;78.10
42421;DHT22;28063;48.140;11.588;2022-09-09T16:59:20;18.90;75.90
42421;DHT22;28063;48.140;11.588;2022-09-09T17:01:59;18.70;76.60
42421;DHT22;28063;48.140;11.588;2022-09-09T17:07:58;18.50;77.80
42421;DHT22;28063;48.140;11.588;2022-09-09T17:44:33;17.00;87.10
42421;DHT22;28063;48.140;11.588;2022-09-09T18:02:35;16.70;90.60
42421;DHT22;28063;48.140;11.588;2022-09-09T18:05:09;16.60;91.00
42421;DHT22;28063;48.140;11.588;2022-09-09T18:07:50;16.50;91.30
42421;DHT22;28063;48.140;11.588;2022-09-09T18:10:17;16.50;91.60
42421;DHT22;28063;48.140;11.588;2022-09-09T18:16:35;16.40;92.10
42421;DHT22;28063;48.140;11.588;2022-09-09T18:25:51;16.30;93.10
42421;DHT22;28063;48.140;11.588;2022-09-09T18:44:19;16.10;94.80
42421;DHT22;28063;48.140;11.588;2022-09-09T18:47:13;16.00;94.90
42421;DHT22;28063;48.140;11.588;2022-09-09T18:49:59;16.00;94.90
42421;DHT22;28063;48.140;11.588;2022-09-09T18:52:26;16.00;95.20
42421;DHT22;28063;48.140;11.588;2022-09-09T18:54:51;16.00;95.40
42421;DHT22;28063;48.140;11.588;2022-09-09T18:57:18;15.90;95.50
42421;DHT22;28063;48.140;11.588;2022-09-09T18:59:44;15.90;95.70
42421;DHT22;28063;48.140;11.588;2022-09-09T19:02:10;15.90;95.80
42421;DHT22;28063;48.140;11.588;2022-09-09T19:04:38;15.90;96.00
42421;DHT22;28063;48.140;11.588;2022-09-09T19:07:03;15.80;96.20
42421;DHT22;28063;48.140;11.588;2022-09-09T19:09:31;15.80;96.30
42421;DHT22;28063;48.140;11.588;2022-09-09T19:11:59;15.70;96.50
42421;DHT22;28063;48.140;11.588;2022-09-09T19:14:25;15.80;96.70
42421;DHT22;28063;48.140;11.588;2022-09-09T19:16:52;15.80;96.90
42421;DHT22;28063;48.140;11.588;2022-09-09T19:19:21;15.80;97.00
42421;DHT22;28063;48.140;11.588;2022-09-09T19:21:47;15.90;97.00
42421;DHT22;28063;48.140;11.588;2022-09-09T19:24:16;15.90;96.90
42421;DHT22;28063;48.140;11.588;2022-09-09T19:26:46;16.10;96.60
42421;DHT22;28063;48.140;11.588;2022-09-09T19:29:20;16.20;96.10
42421;DHT22;28063;48.140;11.588;2022-09-09T19:31:46;16.30;95.10
42421;DHT22;28063;48.140;11.588;2022-09-09T19:34:13;16.40;94.90
42421;DHT22;28063;48.140;11.588;2022-09-09T19:36:40;16.40;94.30
42421;DHT22;28063;48.140;11.588;2022-09-09T19:39:07;16.40;94.10
42421;DHT22;28063;48.140;11.588;2022-09-09T19:41:34;16.30;93.10
42421;DHT22;28063;48.140;11.588;2022-09-09T19:44:02;16.30;93.10
42421;DHT22;28063;48.140;11.588;2022-09-09T19:46:29;16.20;92.90
42421;DHT22;28063;48.140;11.588;2022-09-09T19:48:56;16.20;92.20
42421;DHT22;28063;48.140;11.588;2022-09-09T19:51:23;16.10;92.00
42421;DHT22;28063;48.140;11.588;2022-09-09T19:53:57;16.10;91.60
42421;DHT22;28063;48.140;11.588;2022-09-09T19:56:25;16.00;91.70
42421;DHT22;28063;48.140;11.588;2022-09-09T19:58:53;16.00;91.60
42421;DHT22;28063;48.140;11.588;2022-09-09T20:01:21;16.10;91.60
42421;DHT22;28063;48.140;11.588;2022-09-09T20:03:49;16.10;91.20
42421;DHT22;28063;48.140;11.588;2022-09-09T20:06:18;16.20;90.80
42421;DHT22;28063;48.140;11.588;2022-09-09T20:08:46;16.20;90.80
42421;DHT22;28063;48.140;11.588;2022-09-09T20:11:14;16.10;91.20
42421;DHT22;28063;48.140;11.588;2022-09-09T20:13:40;16.00;91.60
42421;DHT22;28063;48.140;11.588;2022-09-09T20:16:12;15.90;92.20
42421;DHT22;28063;48.140;11.588;2022-09-09T20:18:41;15.80;92.60
42421;DHT22;28063;48.140;11.588;2022-09-09T20:21:24;15.70;92.80
42421;DHT22;28063;48.140;11.588;2022-09-09T20:23:51;15.60;93.10
42421;DHT22;28063;48.140;11.588;2022-09-09T20:26:19;15.50;93.30
42421;DHT22;28063;48.140;11.588;2022-09-09T20:28:50;15.40;93.70
42421;DHT22;28063;48.140;11.588;2022-09-09T20:31:27;15.30;94.10
42421;DHT22;28063;48.140;11.588;2022-09-09T20:33:55;15.20;94.40
42421;DHT22;28063;48.140;11.588;2022-09-09T20:36:23;15.20;94.70
42421;DHT22;28063;48.140;11.588;2022-09-09T20:38:57;15.20;95.00
42421;DHT22;28063;48.140;11.588;2022-09-09T20:41:25;15.20;95.20
42421;DHT22;28063;48.140;11.588;2022-09-09T20:44:00;15.10;95.30
42421;DHT22;28063;48.140;11.588;2022-09-09T20:46:31;15.10;95.30
42421;DHT22;28063;48.140;11.588;2022-09-09T20:48:57;15.10;95.50
42421;DHT22;28063;48.140;11.588;2022-09-09T20:51:26;15.00;95.60
42421;DHT22;28063;48.140;11.588;2022-09-09T20:54:03;15.00;95.90
42421;DHT22;28063;48.140;11.588;2022-09-09T20:56:32;15.00;96.10
42421;DHT22;28063;48.140;11.588;2022-09-09T20:58:59;15.10;96.20
42421;DHT22;28063;48.140;11.588;2022-09-09T21:01:26;15.20;96.10
42421;DHT22;28063;48.140;11.588;2022-09-09T21:03:52;15.30;95.90
42421;DHT22;28063;48.140;11.588;2022-09-09T21:06:18;15.40;95.70
42421;DHT22;28063;48.140;11.588;2022-09-09T21:08:45;15.40;95.50
42421;DHT22;28063;48.140;11.588;2022-09-09T21:11:11;15.50;95.00
42421;DHT22;28063;48.140;11.588;2022-09-09T21:13:38;15.60;94.70
42421;DHT22;28063;48.140;11.588;2022-09-09T21:16:06;15.70;94.90
42421;DHT22;28063;48.140;11.588;2022-09-09T21:18:33;15.70;94.40
42421;DHT22;28063;48.140;11.588;2022-09-09T21:20:59;15.70;94.30
42421;DHT22;28063;48.140;11.588;2022-09-09T21:23:25;15.80;94.30
42421;DHT22;28063;48.140;11.588;2022-09-09T21:25:53;15.80;94.40
42421;DHT22;28063;48.140;11.588;2022-09-09T21:28:19;15.80;94.40
42421;DHT22;28063;48.140;11.588;2022-09-09T21:30:50;15.90;94.60
42421;DHT22;28063;48.140;11.588;2022-09-09T21:33:18;15.90;94.60
42421;DHT22;28063;48.140;11.588;2022-09-09T21:35:44;15.90;94.70
42421;DHT22;28063;48.140;11.588;2022-09-09T21:38:13;15.90;94.70
42421;DHT22;28063;48.140;11.588;2022-09-09T21:40:39;15.90;94.80
42421;DHT22;28063;48.140;11.588;2022-09-09T21:43:11;15.90;94.70
42421;DHT22;28063;48.140;11.588;2022-09-09T21:45:41;16.00;94.50
42421;DHT22;28063;48.140;11.588;2022-09-09T21:48:11;16.00;94.20
42421;DHT22;28063;48.140;11.588;2022-09-09T21:53:03;16.00;94.30
42421;DHT22;28063;48.140;11.588;2022-09-09T21:55:32;16.00;94.40
42421;DHT22;28063;48.140;11.588;2022-09-09T21:57:59;15.90;94.90
42421;DHT22;28063;48.140;11.588;2022-09-09T22:00:25;15.80;95.60
42421;DHT22;28063;48.140;11.588;2022-09-09T22:02:51;15.70;96.40
42421;DHT22;28063;48.140;11.588;2022-09-09T22:05:17;15.60;97.10
42421;DHT22;28063;48.140;11.588;2022-09-09T22:07:42;15.50;97.80
42421;DHT22;28063;48.140;11.588;2022-09-09T22:10:08;15.50;98.30
42421;DHT22;28063;48.140;11.588;2022-09-09T22:12:35;15.40;98.90
42421;DHT22;28063;48.140;11.588;2022-09-09T22:15:01;15.30;99.40
42421;DHT22;28063;48.140;11.588;2022-09-09T22:17:26;15.20;99.80
42421;DHT22;28063;48.140;11.588;2022-09-09T22:19:52;15.20;99.90
42421;DHT22;28063;48.140;11.588;2022-09-09T22:22:18;15.10;99.90
42421;DHT22;28063;48.140;11.588;2022-09-09T22:24:44;15.00;99.90
42421;DHT22;28063;48.140;11.588;2022-09-09T22:27:11;14.90;99.90
42421;DHT22;28063;48.140;11.588;2022-09-09T22:29:39;14.90;99.90
42421;DHT22;28063;48.140;11.588;2022-09-09T22:32:04;14.80;99.90
42421;DHT22;28063;48.140;11.588;2022-09-09T22:34:30;14.80;99.90
42421;DHT22;28063;48.140;11.588;2022-09-09T22:36:56;14.70;99.90
42421;DHT22;28063;48.140;11.588;2022-09-09T22:39:22;14.70;99.90
42421;DHT22;28063;48.140;11.588;2022-09-09T22:41:48;14.70;99.90
42421;DHT22;28063;48.140;11.588;2022-09-09T22:44:14;14.70;99.90
42421;DHT22;28063;48.140;11.588;2022-09-09T22:46:39;14.60;99.90
42421;DHT22;28063;48.140;11.588;2022-09-09T22:49:05;14.50;99.90
42421;DHT22;28063;48.140;11.588;2022-09-09T22:51:31;14.40;99.90
42421;DHT22;28063;48.140;11.588;2022-09-09T22:54:00;14.30;99.90
42421;DHT22;28063;48.140;11.588;2022-09-09T22:56:26;14.20;99.90
42421;DHT22;28063;48.140;11.588;2022-09-09T22:58:53;14.10;99.90
42421;DHT22;28063;48.140;11.588;2022-09-09T23:01:21;14.00;99.90
42421;DHT22;28063;48.140;11.588;2022-09-09T23:03:48;13.90;99.90
42421;DHT22;28063;48.140;11.588;2022-09-09T23:06:16;13.80;99.90
42421;DHT22;28063;48.140;11.588;2022-09-09T23:08:50;13.70;99.90
42421;DHT22;28063;48.140;11.588;2022-09-09T23:11:17;13.70;99.90
42421;DHT22;28063;48.140;11.588;2022-09-09T23:13:48;13.70;99.90
42421;DHT22;28063;48.140;11.588;2022-09-09T23:16:17;13.60;99.90
42421;DHT22;28063;48.140;11.588;2022-09-09T23:18:43;13.60;99.90
42421;DHT22;28063;48.140;11.588;2022-09-09T23:21:11;13.60;99.90
42421;DHT22;28063;48.140;11.588;2022-09-09T23:23:38;13.60;99.90